Time;durP1;ratioP1;P1;durP2;ratioP2;P2;SDS_P1;SDS_P2;PMS_P1;PMS_P2;Temp;Humidity;BMP_temperature;BMP_pressure;BME280_temperature;BME280_humidity;BME280_pressure;Samples;Min_cycle;Max_cycle;Signal;HPM_P1;HPM_P2
2023/03/23 00:00:58;;;;;;;;;;;;;;;-141.59;100.00;61776.25;5104815;27;19990;-80
2023/03/23 00:03:28;;;;;;;;;;;;;;;-141.59;100.00;61776.25;5098991;28;19988;-80
2023/03/23 00:05:59;;;;;;;;;;;;;;;-141.59;100.00;61776.25;5096879;27;19942;-80
2023/03/23 00:08:26;;;;;;;;;;;;;;;-141.59;100.00;61776.25;5103226;28;19977;-80
2023/03/23 00:10:56;;;;;;;;;;;;;;;-141.59;100.00;61776.25;5107247;27;19928;-80
2023/03/23 00:13:25;;;;;;;;;;;;;;;-141.59;100.00;61776.25;5103049;28;19924;-80
2023/03/23 00:15:52;;;;;;;;;;;;;;;-141.59;100.00;61776.25;5097939;28;19924;-80
2023/03/23 00:18:21;;;;;;;;;;;;;;;-141.59;100.00;61776.25;5100854;27;19958;-81
2023/03/23 00:20:49;;;;;;;;;;;;;;;-141.59;100.00;61776.25;5095690;27;19928;-80
2023/03/23 00:23:18;;;;;;;;;;;;;;;-141.59;100.00;61776.25;5104170;28;19939;-80
2023/03/23 00:25:45;;;;;;;;;;;;;;;-141.59;100.00;61776.25;5108862;27;19930;-80
2023/03/23 00:28:12;;;;;;;;;;;;;;;-141.59;100.00;61776.25;5103437;28;19924;-80
2023/03/23 00:30:42;;;;;;;;;;;;;;;-141.59;100.00;61776.25;5108748;27;19942;-80
2023/03/23 00:33:12;;;;;;;;;;;;;;;-141.59;100.00;61776.25;5103534;28;19936;-80
2023/03/23 00:35:40;;;;;;;;;;;;;;;-141.59;100.00;61776.25;5108012;28;19957;-80
2023/03/23 00:38:08;;;;;;;;;;;;;;;-141.59;100.00;61776.25;5099990;28;19990;-80
2023/03/23 00:40:35;;;;;;;;;;;;;;;-141.59;100.00;61776.25;5109621;27;19924;-80
2023/03/23 00:43:03;;;;;;;;;;;;;;;-141.59;100.00;61776.25;5103596;27;19928;-80
2023/03/23 00:45:30;;;;;;;;;;;;;;;-141.59;100.00;61776.25;5106278;28;19928;-80
2023/03/23 00:48:01;;;;;;;;;;;;;;;-141.59;100.00;61776.25;5094760;28;19932;-80
2023/03/23 00:50:31;;;;;;;;;;;;;;;-141.59;100.00;61776.25;5108518;28;19927;-79
2023/03/23 00:52:58;;;;;;;;;;;;;;;-141.59;100.00;61776.25;5100135;28;19967;-79
2023/03/23 00:55:25;;;;;;;;;;;;;;;-141.59;100.00;61776.25;5103032;28;19924;-79
2023/03/23 00:57:53;;;;;;;;;;;;;;;-141.59;100.00;61776.25;5106712;27;19924;-79
2023/03/23 01:00:20;;;;;;;;;;;;;;;-141.59;100.00;61776.25;5105737;27;19970;-79
2023/03/23 01:02:47;;;;;;;;;;;;;;;-141.59;100.00;61776.25;5095167;28;19946;-79
2023/03/23 01:05:15;;;;;;;;;;;;;;;-141.59;100.00;61776.25;5101595;27;19927;-79
2023/03/23 01:07:44;;;;;;;;;;;;;;;-141.59;100.00;61776.25;5105001;27;19923;-78
2023/03/23 01:10:12;;;;;;;;;;;;;;;-141.59;100.00;61776.25;5100785;27;19924;-78
2023/03/23 01:12:39;;;;;;;;;;;;;;;-141.59;100.00;61776.25;5110181;28;19924;-79
2023/03/23 01:15:06;;;;;;;;;;;;;;;-141.59;100.00;61776.25;5109174;28;19982;-79
2023/03/23 01:17:33;;;;;;;;;;;;;;;-141.59;100.00;61776.25;5111829;27;19928;-78
2023/03/23 01:20:00;;;;;;;;;;;;;;;-141.59;100.00;61776.25;5097289;28;19928;-79
2023/03/23 01:22:28;;;;;;;;;;;;;;;-141.59;100.00;61776.25;5100801;27;19970;-79
2023/03/23 01:24:55;;;;;;;;;;;;;;;-141.59;100.00;61776.25;5103957;28;19931;-79
2023/03/23 01:27:22;;;;;;;;;;;;;;;-141.59;100.00;61776.25;5106305;28;19927;-78
2023/03/23 01:29:49;;;;;;;;;;;;;;;-141.59;100.00;61776.25;5107091;27;19928;-79
2023/03/23 01:32:16;;;;;;;;;;;;;;;-141.59;100.00;61776.25;5099643;28;19924;-79
2023/03/23 01:34:42;;;;;;;;;;;;;;;-141.59;100.00;61776.25;5105244;28;19924;-78
2023/03/23 01:37:10;;;;;;;;;;;;;;;-141.59;100.00;61776.25;5097003;28;19931;-79
2023/03/23 01:39:38;;;;;;;;;;;;;;;-141.59;100.00;61776.25;5105325;28;19938;-79
2023/03/23 01:42:06;;;;;;;;;;;;;;;-141.59;100.00;61776.25;5107354;28;20031;-78
2023/03/23 01:44:51;;;;;;;;;;;;;;;-141.59;100.00;61776.25;5110260;28;19924;-79
2023/03/23 01:47:23;;;;;;;;;;;;;;;-141.59;100.00;61776.25;5114414;27;19924;-79
2023/03/23 01:49:51;;;;;;;;;;;;;;;-141.59;100.00;61776.25;5105625;28;19931;-79
2023/03/23 01:52:21;;;;;;;;;;;;;;;-141.59;100.00;61776.25;5105132;27;19950;-79
2023/03/23 01:54:53;;;;;;;;;;;;;;;-141.59;100.00;61776.25;5093400;28;19930;-79
2023/03/23 01:57:22;;;;;;;;;;;;;;;-141.59;100.00;61776.25;5102699;28;19924;-79
2023/03/23 01:59:50;;;;;;;;;;;;;;;-141.59;100.00;61776.25;5096903;28;19924;-79
2023/03/23 02:02:24;;;;;;;;;;;;;;;-141.59;100.00;61776.25;5095070;28;19924;-78
2023/03/23 02:04:52;;;;;;;;;;;;;;;-141.59;100.00;61776.25;5106377;28;19993;-78
2023/03/23 02:07:21;;;;;;;;;;;;;;;-141.59;100.00;61776.25;5107073;27;20040;-79
2023/03/23 02:09:52;;;;;;;;;;;;;;;-141.59;100.00;61776.25;5096887;28;19923;-78
2023/03/23 02:12:19;;;;;;;;;;;;;;;-141.59;100.00;61776.25;5100429;27;19955;-79
2023/03/23 02:14:48;;;;;;;;;;;;;;;-141.59;100.00;61776.25;5105756;27;19980;-79
2023/03/23 02:17:19;;;;;;;;;;;;;;;-141.59;100.00;61776.25;5103165;27;19947;-79
2023/03/23 02:19:58;;;;;;;;;;;;;;;-141.59;100.00;61776.25;5098097;28;19986;-79
2023/03/23 02:22:45;;;;;;;;;;;;;;;-141.59;100.00;61776.25;5106970;28;19928;-78
2023/03/23 02:25:23;;;;;;;;;;;;;;;-141.59;100.00;61776.25;5090464;28;19924;-79
2023/03/23 02:28:06;;;;;;;;;;;;;;;-141.59;100.00;61776.25;5095077;28;19924;-79
2023/03/23 02:30:40;;;;;;;;;;;;;;;-141.59;100.00;61776.25;5107730;28;19924;-79
2023/03/23 02:33:21;;;;;;;;;;;;;;;-141.59;100.00;61776.25;5104202;28;20023;-79
2023/03/23 02:35:51;;;;;;;;;;;;;;;-141.59;100.00;61776.25;5097771;28;19924;-78
2023/03/23 02:38:21;;;;;;;;;;;;;;;-141.59;100.00;61776.25;5098123;28;19931;-79
2023/03/23 02:40:50;;;;;;;;;;;;;;;-141.59;100.00;61776.25;5104436;28;19924;-78
2023/03/23 02:43:18;;;;;;;;;;;;;;;-141.59;100.00;61776.25;5106373;28;19969;-79
2023/03/23 02:45:46;;;;;;;;;;;;;;;-141.59;100.00;61776.25;5097808;28;19928;-79
2023/03/23 02:48:16;;;;;;;;;;;;;;;-141.59;100.00;61776.25;5101123;28;19973;-78
2023/03/23 02:50:45;;;;;;;;;;;;;;;-141.59;100.00;61776.25;5101795;28;19930;-79
2023/03/23 02:53:14;;;;;;;;;;;;;;;-141.59;100.00;61776.25;5105046;28;19938;-78
2023/03/23 02:55:43;;;;;;;;;;;;;;;-141.59;100.00;61776.25;5102503;28;19936;-79
2023/03/23 02:58:15;;;;;;;;;;;;;;;-141.59;100.00;61776.25;5095089;27;20027;-79
2023/03/23 03:00:44;;;;;;;;;;;;;;;-141.59;100.00;61776.25;5096813;27;19930;-79
2023/03/23 03:03:14;;;;;;;;;;;;;;;-141.59;100.00;61776.25;5092380;28;19924;-79
2023/03/23 03:05:44;;;;;;;;;;;;;;;-141.59;100.00;61776.25;5105213;28;20059;-79
2023/03/23 03:08:21;;;;;;;;;;;;;;;-141.59;100.00;61776.25;5095335;28;19924;-78
2023/03/23 03:10:52;;;;;;;;;;;;;;;-141.59;100.00;61776.25;5103042;28;19929;-79
2023/03/23 03:13:23;;;;;;;;;;;;;;;-141.59;100.00;61776.25;5099619;27;19924;-79
2023/03/23 03:15:53;;;;;;;;;;;;;;;-141.59;100.00;61776.25;5091397;28;19924;-79
2023/03/23 03:18:25;;;;;;;;;;;;;;;-141.59;100.00;61776.25;5102004;28;19924;-78
2023/03/23 03:20:54;;;;;;;;;;;;;;;-141.59;100.00;61776.25;5106456;28;19924;-79
2023/03/23 03:23:25;;;;;;;;;;;;;;;-141.59;100.00;61776.25;5102632;28;19924;-78
2023/03/23 03:25:57;;;;;;;;;;;;;;;-141.59;100.00;61776.25;5098097;28;19924;-78
2023/03/23 03:28:35;;;;;;;;;;;;;;;-141.59;100.00;61776.25;5100547;28;19938;-78
2023/03/23 03:31:04;;;;;;;;;;;;;;;-141.59;100.00;61776.25;5105577;28;19932;-78
2023/03/23 03:33:33;;;;;;;;;;;;;;;-141.59;100.00;61776.25;5095279;28;19924;-78
2023/03/23 03:36:01;;;;;;;;;;;;;;;-141.59;100.00;61776.25;5095769;27;19946;-78
2023/03/23 03:38:30;;;;;;;;;;;;;;;-141.59;100.00;61776.25;5096433;28;19953;-78
2023/03/23 03:40:57;;;;;;;;;;;;;;;-141.59;100.00;61776.25;5102651;28;19934;-78
2023/03/23 03:43:24;;;;;;;;;;;;;;;-141.59;100.00;61776.25;5096670;28;20019;-78
2023/03/23 03:45:50;;;;;;;;;;;;;;;-141.59;100.00;61776.25;5094600;28;19928;-78
2023/03/23 03:48:17;;;;;;;;;;;;;;;-141.59;100.00;61776.25;5100185;28;19934;-78
2023/03/23 03:50:45;;;;;;;;;;;;;;;-141.59;100.00;61776.25;5095770;28;19931;-78
2023/03/23 03:53:12;;;;;;;;;;;;;;;-141.59;100.00;61776.25;5107909;27;19977;-78
2023/03/23 03:55:45;;;;;;;;;;;;;;;-141.59;100.00;61776.25;5102537;28;19923;-78
2023/03/23 03:58:13;;;;;;;;;;;;;;;-141.59;100.00;61776.25;5104356;28;19924;-78
2023/03/23 04:01:05;;;;;;;;;;;;;;;-141.59;100.00;61776.25;5089613;28;19931;-78
2023/03/23 04:03:37;;;;;;;;;;;;;;;-141.59;100.00;61776.25;5096666;28;19931;-78
2023/03/23 04:06:13;;;;;;;;;;;;;;;-141.59;100.00;61776.25;5096742;28;20017;-78
2023/03/23 04:08:41;;;;;;;;;;;;;;;-141.59;100.00;61776.25;5090826;27;20057;-78
2023/03/23 04:11:09;;;;;;;;;;;;;;;-141.59;100.00;61776.25;5099287;28;20007;-78
2023/03/23 04:13:36;;;;;;;;;;;;;;;-141.59;100.00;61776.25;5092405;28;19978;-78
2023/03/23 04:16:08;;;;;;;;;;;;;;;-141.59;100.00;61776.25;5096923;28;19924;-78
2023/03/23 04:18:35;;;;;;;;;;;;;;;-141.59;100.00;61776.25;5095725;28;19936;-78
2023/03/23 04:21:04;;;;;;;;;;;;;;;-141.59;100.00;61776.25;5091719;27;19924;-78
2023/03/23 04:23:33;;;;;;;;;;;;;;;-141.59;100.00;61776.25;5095647;27;19935;-78
2023/03/23 04:26:03;;;;;;;;;;;;;;;-141.59;100.00;61776.25;5098721;28;19934;-78
2023/03/23 04:28:38;;;;;;;;;;;;;;;-141.59;100.00;61776.25;5101710;28;20039;-78
2023/03/23 04:31:34;;;;;;;;;;;;;;;-141.59;100.00;61776.25;5063208;28;19924;-78
2023/03/23 04:34:19;;;;;;;;;;;;;;;-141.59;100.00;61776.25;5097199;28;19934;-78
2023/03/23 04:36:49;;;;;;;;;;;;;;;-141.59;100.00;61776.25;5096522;28;19976;-78
2023/03/23 04:39:21;;;;;;;;;;;;;;;-141.59;100.00;61776.25;5090687;28;20031;-78
2023/03/23 04:41:48;;;;;;;;;;;;;;;-141.59;100.00;61776.25;5100480;28;19924;-78
2023/03/23 04:44:22;;;;;;;;;;;;;;;-141.59;100.00;61776.25;5100356;27;19977;-78
2023/03/23 04:47:10;;;;;;;;;;;;;;;-141.59;100.00;61776.25;5099881;28;19967;-78
2023/03/23 04:49:44;;;;;;;;;;;;;;;-141.59;100.00;61776.25;5103946;28;19924;-78
2023/03/23 04:52:20;;;;;;;;;;;;;;;-141.59;100.00;61776.25;5103149;27;19963;-78
2023/03/23 04:54:55;;;;;;;;;;;;;;;-141.59;100.00;61776.25;5093270;28;19924;-78
2023/03/23 04:57:22;;;;;;;;;;;;;;;-141.59;100.00;61776.25;5098598;28;19923;-78
2023/03/23 05:00:14;;;;;;;;;;;;;;;-141.59;100.00;61776.25;5097061;28;20024;-78
2023/03/23 05:02:44;;;;;;;;;;;;;;;-141.59;100.00;61776.25;5102909;28;19966;-78
2023/03/23 05:05:12;;;;;;;;;;;;;;;-141.59;100.00;61776.25;5104516;28;19924;-78
2023/03/23 05:07:40;;;;;;;;;;;;;;;-141.59;100.00;61776.25;5109572;27;19973;-78
2023/03/23 05:10:07;;;;;;;;;;;;;;;-141.59;100.00;61776.25;5096405;28;20014;-78
2023/03/23 05:12:35;;;;;;;;;;;;;;;-141.59;100.00;61776.25;5093038;28;20010;-78
2023/03/23 05:15:06;;;;;;;;;;;;;;;-141.59;100.00;61776.25;5107498;28;19931;-78
2023/03/23 05:17:36;;;;;;;;;;;;;;;-141.59;100.00;61776.25;5105243;28;19928;-78
2023/03/23 05:20:12;;;;;;;;;;;;;;;-141.59;100.00;61776.25;5103934;27;20184;-78
2023/03/23 05:22:44;;;;;;;;;;;;;;;-141.59;100.00;61776.25;5101416;28;19924;-78
2023/03/23 05:25:13;;;;;;;;;;;;;;;-141.59;100.00;61776.25;5100985;28;19930;-78
2023/03/23 05:27:48;;;;;;;;;;;;;;;-141.59;100.00;61776.25;5101564;28;20283;-78
2023/03/23 05:30:39;;;;;;;;;;;;;;;-141.59;100.00;61776.25;5098257;28;19924;-77
2023/03/23 05:33:08;;;;;;;;;;;;;;;-141.59;100.00;61776.25;5099079;28;19923;-78
2023/03/23 05:35:47;;;;;;;;;;;;;;;-141.59;100.00;61776.25;5102224;27;19924;-78
2023/03/23 05:38:15;;;;;;;;;;;;;;;-141.59;100.00;61776.25;5105817;28;19928;-78
2023/03/23 05:40:42;;;;;;;;;;;;;;;-141.59;100.00;61776.25;5093728;28;19928;-78
2023/03/23 05:43:17;;;;;;;;;;;;;;;-141.59;100.00;61776.25;5096091;28;19931;-78
2023/03/23 05:45:55;;;;;;;;;;;;;;;-141.59;100.00;61776.25;5099890;28;19924;-78
2023/03/23 05:48:24;;;;;;;;;;;;;;;-141.59;100.00;61776.25;5113518;27;19928;-79
2023/03/23 05:50:51;;;;;;;;;;;;;;;-141.59;100.00;61776.25;5104039;27;19927;-78
2023/03/23 05:53:21;;;;;;;;;;;;;;;-141.59;100.00;61776.25;5091170;28;19925;-78
2023/03/23 05:55:48;;;;;;;;;;;;;;;-141.59;100.00;61776.25;5100223;28;19928;-78
2023/03/23 05:58:32;;;;;;;;;;;;;;;-141.59;100.00;61776.25;5104104;27;19924;-78
2023/03/23 06:00:59;;;;;;;;;;;;;;;-141.59;100.00;61776.25;5104070;28;19930;-77
2023/03/23 06:03:31;;;;;;;;;;;;;;;-141.59;100.00;61776.25;5093316;28;19935;-78
2023/03/23 06:06:03;;;;;;;;;;;;;;;-141.59;100.00;61776.25;5093133;28;19930;-78
2023/03/23 06:08:37;;;;;;;;;;;;;;;-141.59;100.00;61776.25;5097275;28;19967;-81
2023/03/23 06:11:05;;;;;;;;;;;;;;;-141.59;100.00;61776.25;5099976;28;19956;-81
2023/03/23 06:13:35;;;;;;;;;;;;;;;-141.59;100.00;61776.25;5103536;28;19924;-80
2023/03/23 06:16:08;;;;;;;;;;;;;;;-141.59;100.00;61776.25;5097366;28;19928;-81
2023/03/23 06:18:49;;;;;;;;;;;;;;;-141.59;100.00;61776.25;5090553;28;19932;-81
2023/03/23 06:21:36;;;;;;;;;;;;;;;-141.59;100.00;61776.25;5090270;28;19997;-81
2023/03/23 06:24:35;;;;;;;;;;;;;;;-141.59;100.00;61776.25;5104933;28;20012;-81
2023/03/23 06:27:03;;;;;;;;;;;;;;;-141.59;100.00;61776.25;5107251;28;19924;-80
2023/03/23 06:29:30;;;;;;;;;;;;;;;-141.59;100.00;61776.25;5099000;28;20128;-80
2023/03/23 06:31:58;;;;;;;;;;;;;;;-141.59;100.00;61776.25;5105631;27;20093;-81
2023/03/23 06:34:27;;;;;;;;;;;;;;;-141.59;100.00;61776.25;5104998;28;19967;-80
2023/03/23 06:37:27;;;;;;;;;;;;;;;-141.59;100.00;61776.25;5081028;28;19924;-80
2023/03/23 06:40:18;;;;;;;;;;;;;;;-141.59;100.00;61776.25;5098321;28;19995;-81
2023/03/23 06:42:51;;;;;;;;;;;;;;;-141.59;100.00;61776.25;5095347;27;20030;-81
2023/03/23 06:45:40;;;;;;;;;;;;;;;-141.59;100.00;61776.25;5093315;28;19939;-80
2023/03/23 06:48:33;;;;;;;;;;;;;;;-141.59;100.00;61776.25;5098987;28;19932;-81
2023/03/23 06:51:02;;;;;;;;;;;;;;;-141.59;100.00;61776.25;5106155;28;19973;-81
2023/03/23 06:53:30;;;;;;;;;;;;;;;-141.59;100.00;61776.25;5093581;28;19978;-81
2023/03/23 06:55:59;;;;;;;;;;;;;;;-141.59;100.00;61776.25;5101387;28;19963;-81
2023/03/23 06:58:26;;;;;;;;;;;;;;;-141.59;100.00;61776.25;5095245;28;19924;-80
2023/03/23 07:00:58;;;;;;;;;;;;;;;-141.59;100.00;61776.25;5106578;28;19930;-81
2023/03/23 07:03:32;;;;;;;;;;;;;;;-141.59;100.00;61776.25;5105079;28;20000;-81
2023/03/23 07:06:03;;;;;;;;;;;;;;;-141.59;100.00;61776.25;5099647;28;19924;-81
2023/03/23 07:08:33;;;;;;;;;;;;;;;-141.59;100.00;61776.25;5097806;28;19932;-81
2023/03/23 07:11:00;;;;;;;;;;;;;;;-141.59;100.00;61776.25;5101086;28;19981;-81
2023/03/23 07:13:28;;;;;;;;;;;;;;;-141.59;100.00;61776.25;5094055;28;19938;-80
2023/03/23 07:15:59;;;;;;;;;;;;;;;-141.59;100.00;61776.25;5097708;28;20085;-80
2023/03/23 07:18:26;;;;;;;;;;;;;;;-141.59;100.00;61776.25;5094628;28;19928;-81
2023/03/23 07:20:55;;;;;;;;;;;;;;;-141.59;100.00;61776.25;5093948;27;19924;-80
2023/03/23 07:23:29;;;;;;;;;;;;;;;-141.59;100.00;61776.25;5112104;27;19927;-78
2023/03/23 07:26:01;;;;;;;;;;;;;;;-141.59;100.00;61776.25;5103957;27;19924;-78
2023/03/23 07:28:36;;;;;;;;;;;;;;;-141.59;100.00;61776.25;5100408;28;19989;-78
2023/03/23 07:31:13;;;;;;;;;;;;;;;-141.59;100.00;61776.25;5096830;28;19924;-78
2023/03/23 07:33:43;;;;;;;;;;;;;;;-141.59;100.00;61776.25;5096361;28;20019;-78
2023/03/23 07:36:10;;;;;;;;;;;;;;;-141.59;100.00;61776.25;5095828;28;19923;-78
2023/03/23 07:38:39;;;;;;;;;;;;;;;-141.59;100.00;61776.25;5096455;28;19928;-78
2023/03/23 07:41:08;;;;;;;;;;;;;;;-141.59;100.00;61776.25;5094908;28;20558;-78
2023/03/23 07:43:36;;;;;;;;;;;;;;;-141.59;100.00;61776.25;5100507;28;19927;-78
2023/03/23 07:46:09;;;;;;;;;;;;;;;-141.59;100.00;61776.25;5097051;28;19984;-78
2023/03/23 07:48:46;;;;;;;;;;;;;;;-141.59;100.00;61776.25;5100370;28;19924;-78
2023/03/23 07:51:13;;;;;;;;;;;;;;;-141.59;100.00;61776.25;5098816;28;19935;-78
2023/03/23 07:53:44;;;;;;;;;;;;;;;-141.59;100.00;61776.25;5101301;27;20026;-79
2023/03/23 07:56:39;;;;;;;;;;;;;;;-141.59;100.00;61776.25;5097792;28;19939;-78
2023/03/23 07:59:12;;;;;;;;;;;;;;;-141.59;100.00;61776.25;5096492;28;19931;-79
2023/03/23 08:01:40;;;;;;;;;;;;;;;-141.59;100.00;61776.25;5097944;28;19936;-78
2023/03/23 08:04:27;;;;;;;;;;;;;;;-141.59;100.00;61776.25;5101116;28;19931;-78
2023/03/23 08:07:18;;;;;;;;;;;;;;;-141.59;100.00;61776.25;5098151;28;20019;-78
2023/03/23 08:10:14;;;;;;;;;;;;;;;-141.59;100.00;61776.25;5097013;28;19993;-78
2023/03/23 08:13:19;;;;;;;;;;;;;;;-141.59;100.00;61776.25;5068171;28;19982;-78
2023/03/23 08:16:03;;;;;;;;;;;;;;;-141.59;100.00;61776.25;5048313;28;19929;-78
2023/03/23 08:18:52;;;;;;;;;;;;;;;-141.59;100.00;61776.25;5083732;28;19925;-78
2023/03/23 08:21:45;;;;;;;;;;;;;;;-141.59;100.00;61776.25;5085804;28;20007;-78
2023/03/23 08:24:22;;;;;;;;;;;;;;;-141.59;100.00;61776.25;5106529;28;19923;-78
2023/03/23 08:27:03;;;;;;;;;;;;;;;-141.59;100.00;61776.25;5094530;27;19924;-78
2023/03/23 08:29:54;;;;;;;;;;;;;;;-141.59;100.00;61776.25;5084716;28;20009;-79
2023/03/23 08:32:40;;;;;;;;;;;;;;;-141.59;100.00;61776.25;5098185;28;19930;-78
2023/03/23 08:35:27;;;;;;;;;;;;;;;-141.59;100.00;61776.25;5102129;28;19924;-78
2023/03/23 08:38:21;;;;;;;;;;;;;;;-141.59;100.00;61776.25;5103964;27;20012;-78
2023/03/23 08:41:14;;;;;;;;;;;;;;;-141.59;100.00;61776.25;5102559;28;19999;-78
2023/03/23 08:44:12;;;;;;;;;;;;;;;-141.59;100.00;61776.25;5094543;28;19977;-78
2023/03/23 08:46:56;;;;;;;;;;;;;;;-141.59;100.00;61776.25;5101709;28;20069;-79
2023/03/23 08:49:42;;;;;;;;;;;;;;;-141.59;100.00;61776.25;5096515;28;19939;-78
2023/03/23 08:52:13;;;;;;;;;;;;;;;-141.59;100.00;61776.25;5104814;27;19924;-78
2023/03/23 08:55:04;;;;;;;;;;;;;;;-141.59;100.00;61776.25;5095131;28;19924;-78
2023/03/23 08:57:48;;;;;;;;;;;;;;;-141.59;100.00;61776.25;5110168;28;19951;-79
2023/03/23 09:00:40;;;;;;;;;;;;;;;-141.59;100.00;61776.25;5092206;28;19939;-79
2023/03/23 09:03:25;;;;;;;;;;;;;;;-141.59;100.00;61776.25;5106426;28;19931;-78
2023/03/23 09:06:12;;;;;;;;;;;;;;;-141.59;100.00;61776.25;5103974;27;19950;-78
2023/03/23 09:08:49;;;;;;;;;;;;;;;-141.59;100.00;61776.25;5094058;28;19924;-78
2023/03/23 09:11:16;;;;;;;;;;;;;;;-141.59;100.00;61776.25;5099263;28;19977;-79
2023/03/23 09:13:43;;;;;;;;;;;;;;;-141.59;100.00;61776.25;5101555;27;19930;-78
2023/03/23 09:16:11;;;;;;;;;;;;;;;-141.59;100.00;61776.25;5100494;28;19960;-79
2023/03/23 09:18:38;;;;;;;;;;;;;;;-141.59;100.00;61776.25;5098254;28;20004;-78
2023/03/23 09:21:05;;;;;;;;;;;;;;;-141.59;100.00;61776.25;5100958;28;19927;-78
2023/03/23 09:23:32;;;;;;;;;;;;;;;-141.59;100.00;61776.25;5095195;28;19924;-78
2023/03/23 09:26:00;;;;;;;;;;;;;;;-141.59;100.00;61776.25;5105016;28;19931;-78
2023/03/23 09:28:27;;;;;;;;;;;;;;;-141.59;100.00;61776.25;5096389;28;19932;-78
2023/03/23 09:30:56;;;;;;;;;;;;;;;-141.59;100.00;61776.25;5107840;27;19977;-78
2023/03/23 09:33:24;;;;;;;;;;;;;;;-141.59;100.00;61776.25;5102450;27;19932;-78
2023/03/23 09:35:51;;;;;;;;;;;;;;;-141.59;100.00;61776.25;5098691;28;19932;-78
2023/03/23 09:38:19;;;;;;;;;;;;;;;-141.59;100.00;61776.25;5099071;28;20006;-78
2023/03/23 09:40:48;;;;;;;;;;;;;;;-141.59;100.00;61776.25;5110061;27;19946;-78
2023/03/23 09:43:22;;;;;;;;;;;;;;;-141.59;100.00;61776.25;5092343;28;19961;-79
2023/03/23 09:45:53;;;;;;;;;;;;;;;-141.59;100.00;61776.25;5106463;28;19928;-79
2023/03/23 09:48:37;;;;;;;;;;;;;;;-141.59;100.00;61776.25;5098774;28;19924;-79
2023/03/23 09:51:11;;;;;;;;;;;;;;;-141.59;100.00;61776.25;5095871;28;19935;-79
2023/03/23 09:53:41;;;;;;;;;;;;;;;-141.59;100.00;61776.25;5093652;28;19952;-79
2023/03/23 09:56:11;;;;;;;;;;;;;;;-141.59;100.00;61776.25;5104221;27;19928;-79
2023/03/23 09:58:42;;;;;;;;;;;;;;;-141.59;100.00;61776.25;5090231;28;19928;-79
2023/03/23 10:01:14;;;;;;;;;;;;;;;-141.59;100.00;61776.25;5095801;28;19924;-78
2023/03/23 10:03:43;;;;;;;;;;;;;;;-141.59;100.00;61776.25;5108385;28;19974;-78
2023/03/23 10:06:12;;;;;;;;;;;;;;;-141.59;100.00;61776.25;5094746;28;19932;-79
2023/03/23 10:08:41;;;;;;;;;;;;;;;-141.59;100.00;61776.25;5102150;27;19924;-79
2023/03/23 10:11:11;;;;;;;;;;;;;;;-141.59;100.00;61776.25;5102520;28;19923;-78
2023/03/23 10:13:44;;;;;;;;;;;;;;;-141.59;100.00;61776.25;5092702;28;19924;-78
2023/03/23 10:16:13;;;;;;;;;;;;;;;-141.59;100.00;61776.25;5100394;28;19924;-78
2023/03/23 10:18:44;;;;;;;;;;;;;;;-141.59;100.00;61776.25;5101324;28;19950;-78
2023/03/23 10:21:13;;;;;;;;;;;;;;;-141.59;100.00;61776.25;5093390;28;20023;-78
2023/03/23 10:23:46;;;;;;;;;;;;;;;-141.59;100.00;61776.25;5097014;28;19938;-79
2023/03/23 10:26:18;;;;;;;;;;;;;;;-141.59;100.00;61776.25;5099127;28;19930;-78
2023/03/23 10:28:47;;;;;;;;;;;;;;;-141.59;100.00;61776.25;5104872;27;19932;-79
2023/03/23 10:31:17;;;;;;;;;;;;;;;-141.59;100.00;61776.25;5096489;28;19924;-79
2023/03/23 10:33:47;;;;;;;;;;;;;;;-141.59;100.00;61776.25;5094024;28;19931;-78
2023/03/23 10:36:17;;;;;;;;;;;;;;;-141.59;100.00;61776.25;5105758;28;19924;-78
2023/03/23 10:38:45;;;;;;;;;;;;;;;-141.59;100.00;61776.25;5101532;28;19929;-78
2023/03/23 10:41:13;;;;;;;;;;;;;;;-141.59;100.00;61776.25;5091571;28;19924;-78
2023/03/23 10:43:41;;;;;;;;;;;;;;;-141.59;100.00;61776.25;5098802;28;19924;-79
2023/03/23 10:46:16;;;;;;;;;;;;;;;-141.59;100.00;61776.25;5104322;28;19930;-78
2023/03/23 10:48:48;;;;;;;;;;;;;;;-141.59;100.00;61776.25;5095302;28;19932;-78
2023/03/23 10:51:19;;;;;;;;;;;;;;;-141.59;100.00;61776.25;5100047;28;19991;-78
2023/03/23 10:53:47;;;;;;;;;;;;;;;-141.59;100.00;61776.25;5098712;28;20034;-78
2023/03/23 10:56:22;;;;;;;;;;;;;;;-141.59;100.00;61776.25;5089792;28;19932;-79
2023/03/23 10:58:49;;;;;;;;;;;;;;;-141.59;100.00;61776.25;5095170;28;19924;-78
2023/03/23 11:01:19;;;;;;;;;;;;;;;-141.59;100.00;61776.25;5098226;28;19924;-78
2023/03/23 11:03:48;;;;;;;;;;;;;;;-141.59;100.00;61776.25;5096144;28;19924;-79
2023/03/23 11:06:22;;;;;;;;;;;;;;;-141.59;100.00;61776.25;5100016;27;19924;-78
2023/03/23 11:08:52;;;;;;;;;;;;;;;-141.59;100.00;61776.25;5092113;28;19924;-79
2023/03/23 11:11:21;;;;;;;;;;;;;;;-141.59;100.00;61776.25;5100873;28;19934;-80
2023/03/23 11:13:51;;;;;;;;;;;;;;;-141.59;100.00;61776.25;5105832;27;19932;-81
2023/03/23 11:16:24;;;;;;;;;;;;;;;-141.59;100.00;61776.25;5103361;27;19924;-81
2023/03/23 11:18:52;;;;;;;;;;;;;;;-141.59;100.00;61776.25;5095112;27;19971;-81
2023/03/23 11:21:21;;;;;;;;;;;;;;;-141.59;100.00;61776.25;5092055;28;20062;-81
2023/03/23 11:23:51;;;;;;;;;;;;;;;-141.59;100.00;61776.25;5093369;28;19946;-81
2023/03/23 11:26:21;;;;;;;;;;;;;;;-141.59;100.00;61776.25;5097742;28;19958;-82
2023/03/23 11:28:52;;;;;;;;;;;;;;;-141.59;100.00;61776.25;5093032;28;19946;-81
2023/03/23 11:31:22;;;;;;;;;;;;;;;-141.59;100.00;61776.25;5099571;27;19948;-81
2023/03/23 11:33:52;;;;;;;;;;;;;;;-141.59;100.00;61776.25;5101688;27;20038;-80
2023/03/23 11:36:19;;;;;;;;;;;;;;;-141.59;100.00;61776.25;5097030;27;19932;-80
2023/03/23 11:38:46;;;;;;;;;;;;;;;-141.59;100.00;61776.25;5092217;27;19928;-80
2023/03/23 11:41:19;;;;;;;;;;;;;;;-141.59;100.00;61776.25;5098707;28;19924;-80
2023/03/23 11:43:48;;;;;;;;;;;;;;;-141.59;100.00;61776.25;5095435;28;19928;-80
2023/03/23 11:46:21;;;;;;;;;;;;;;;-141.59;100.00;61776.25;5094335;27;19947;-80
2023/03/23 11:48:52;;;;;;;;;;;;;;;-141.59;100.00;61776.25;5100577;28;19968;-82
2023/03/23 11:51:21;;;;;;;;;;;;;;;-141.59;100.00;61776.25;5078833;28;19932;-81
2023/03/23 11:54:51;;;;;;;;;;;;;;;18.50;53.49;95766.56;5076356;27;19971;-81
2023/03/23 11:57:19;;;;;;;;;;;;;;;18.59;53.07;95760.47;5067080;28;19955;-81
2023/03/23 11:59:45;;;;;;;;;;;;;;;18.89;52.85;95763.56;5071312;28;19932;-81
2023/03/23 12:02:45;;;;;;;;;;;;;;;19.21;53.43;95762.00;5057813;28;19925;-80
2023/03/23 12:05:40;;;;;;;;;;;;;;;19.45;52.72;95762.66;5061912;28;19933;-83
2023/03/23 12:08:19;;;;;;;;;;;;;;;19.52;50.02;95752.16;5069586;28;19924;-83
2023/03/23 12:10:50;;;;;;;;;;;;;;;19.53;48.37;95748.31;5061709;28;19928;-83
2023/03/23 12:13:26;;;;;;;;;;;;;;;19.56;48.53;95744.94;5067247;28;20027;-82
2023/03/23 12:15:57;;;;;;;;;;;;;;;19.64;48.22;95744.28;5058435;28;19933;-77
2023/03/23 12:20:19;;;;;;;5.05;4.20;;;;;;;20.20;48.43;95750.59;5094514;27;20290;-68
2023/03/23 12:22:58;;;;;;;4.18;3.65;;;;;;;20.34;47.01;95745.94;5060421;27;20241;-70
2023/03/23 12:25:53;;;;;;;4.60;4.20;;;;;;;20.41;46.35;95729.09;5029291;28;20226;-68
2023/03/23 12:28:30;;;;;;;5.57;3.97;;;;;;;20.46;45.59;95724.28;5038580;28;20218;-68
2023/03/23 12:31:06;;;;;;;5.50;4.10;;;;;;;20.51;45.25;95712.38;5039834;28;20229;-69
2023/03/23 12:33:46;;;;;;;6.50;4.38;;;;;;;20.56;45.04;95715.84;5029823;28;20269;-68
2023/03/23 12:36:27;;;;;;;5.70;3.40;;;;;;;20.60;45.03;95716.81;5034988;28;20226;-62
2023/03/23 12:39:30;;;;;;;4.80;3.58;;;;;;;20.63;45.15;95710.72;5035805;28;20230;-61
2023/03/23 12:42:06;;;;;;;6.25;3.38;;;;;;;20.67;44.68;95710.94;5037567;28;20214;-62
2023/03/23 12:44:36;;;;;;;5.85;3.85;;;;;;;20.71;44.96;95703.69;5029734;28;20207;-61
2023/03/23 12:47:25;;;;;;;4.10;3.40;;;;;;;20.74;45.37;95708.56;5065826;28;20535;-62